sensor_id;sensor_type;location;lat;lon;timestamp;temperature;humidity
3100;DHT22;1560;52.746;13.474;2023-08-31T00:00:28;14.80;99.90
3100;DHT22;1560;52.746;13.474;2023-08-31T00:02:56;14.90;99.90
3100;DHT22;1560;52.746;13.474;2023-08-31T00:05:25;14.90;99.90
3100;DHT22;1560;52.746;13.474;2023-08-31T00:07:56;14.90;99.90
3100;DHT22;1560;52.746;13.474;2023-08-31T00:10:24;14.90;99.90
3100;DHT22;1560;52.746;13.474;2023-08-31T00:12:53;14.90;99.90
3100;DHT22;1560;52.746;13.474;2023-08-31T00:15:21;14.90;99.90
3100;DHT22;1560;52.746;13.474;2023-08-31T00:17:51;14.90;99.90
3100;DHT22;1560;52.746;13.474;2023-08-31T00:20:19;14.90;99.90
3100;DHT22;1560;52.746;13.474;2023-08-31T00:22:49;14.90;99.90
3100;DHT22;1560;52.746;13.474;2023-08-31T00:25:18;14.90;99.90
3100;DHT22;1560;52.746;13.474;2023-08-31T00:27:46;14.90;99.90
3100;DHT22;1560;52.746;13.474;2023-08-31T00:32:52;14.90;99.90
3100;DHT22;1560;52.746;13.474;2023-08-31T00:35:21;14.90;99.90
3100;DHT22;1560;52.746;13.474;2023-08-31T00:37:50;14.90;99.90
3100;DHT22;1560;52.746;13.474;2023-08-31T00:40:19;14.90;99.90
3100;DHT22;1560;52.746;13.474;2023-08-31T00:42:47;14.80;99.90
3100;DHT22;1560;52.746;13.474;2023-08-31T00:47:54;14.80;99.90
3100;DHT22;1560;52.746;13.474;2023-08-31T00:50:24;14.90;99.90
3100;DHT22;1560;52.746;13.474;2023-08-31T00:52:53;14.80;99.90
3100;DHT22;1560;52.746;13.474;2023-08-31T00:55:21;14.80;99.90
3100;DHT22;1560;52.746;13.474;2023-08-31T00:57:50;14.80;99.90
3100;DHT22;1560;52.746;13.474;2023-08-31T01:02:59;14.80;99.90
3100;DHT22;1560;52.746;13.474;2023-08-31T01:05:37;14.70;99.90
3100;DHT22;1560;52.746;13.474;2023-08-31T01:08:14;14.80;99.90
3100;DHT22;1560;52.746;13.474;2023-08-31T01:13:24;14.80;99.90
3100;DHT22;1560;52.746;13.474;2023-08-31T01:18:33;14.80;99.90
3100;DHT22;1560;52.746;13.474;2023-08-31T01:23:50;14.80;99.90
3100;DHT22;1560;52.746;13.474;2023-08-31T01:26:21;14.80;99.90
3100;DHT22;1560;52.746;13.474;2023-08-31T01:28:50;14.80;99.90
3100;DHT22;1560;52.746;13.474;2023-08-31T01:33:56;14.80;99.90
3100;DHT22;1560;52.746;13.474;2023-08-31T01:36:27;14.80;99.90
3100;DHT22;1560;52.746;13.474;2023-08-31T01:41:36;14.90;99.90
3100;DHT22;1560;52.746;13.474;2023-08-31T01:44:07;14.90;99.90
3100;DHT22;1560;52.746;13.474;2023-08-31T01:46:38;14.90;99.90
3100;DHT22;1560;52.746;13.474;2023-08-31T01:49:07;14.90;99.90
3100;DHT22;1560;52.746;13.474;2023-08-31T01:54:13;14.90;99.90
3100;DHT22;1560;52.746;13.474;2023-08-31T01:56:41;14.90;99.90
3100;DHT22;1560;52.746;13.474;2023-08-31T01:59:10;14.90;99.90
3100;DHT22;1560;52.746;13.474;2023-08-31T02:01:38;14.80;99.90
3100;DHT22;1560;52.746;13.474;2023-08-31T02:04:07;14.80;99.90
3100;DHT22;1560;52.746;13.474;2023-08-31T02:06:35;14.80;99.90
3100;DHT22;1560;52.746;13.474;2023-08-31T02:09:05;14.80;99.90
3100;DHT22;1560;52.746;13.474;2023-08-31T02:11:34;14.90;99.90
3100;DHT22;1560;52.746;13.474;2023-08-31T02:14:04;14.80;99.90
3100;DHT22;1560;52.746;13.474;2023-08-31T02:16:34;14.80;99.90
3100;DHT22;1560;52.746;13.474;2023-08-31T02:19:02;14.80;99.90
3100;DHT22;1560;52.746;13.474;2023-08-31T02:21:31;14.80;99.90
3100;DHT22;1560;52.746;13.474;2023-08-31T02:23:59;14.80;99.90
3100;DHT22;1560;52.746;13.474;2023-08-31T02:26:28;14.80;99.90
3100;DHT22;1560;52.746;13.474;2023-08-31T02:31:34;14.80;99.90
3100;DHT22;1560;52.746;13.474;2023-08-31T02:34:05;14.80;99.90
3100;DHT22;1560;52.746;13.474;2023-08-31T02:36:34;14.70;99.90
3100;DHT22;1560;52.746;13.474;2023-08-31T02:39:03;14.70;99.90
3100;DHT22;1560;52.746;13.474;2023-08-31T02:41:32;14.70;99.90
3100;DHT22;1560;52.746;13.474;2023-08-31T02:44:00;14.60;99.90
3100;DHT22;1560;52.746;13.474;2023-08-31T02:46:29;14.60;99.90
3100;DHT22;1560;52.746;13.474;2023-08-31T02:48:57;14.50;99.90
3100;DHT22;1560;52.746;13.474;2023-08-31T02:51:26;14.60;99.90
3100;DHT22;1560;52.746;13.474;2023-08-31T02:53:55;14.60;99.90
3100;DHT22;1560;52.746;13.474;2023-08-31T02:58:59;14.60;99.90
3100;DHT22;1560;52.746;13.474;2023-08-31T03:01:28;14.50;99.90
3100;DHT22;1560;52.746;13.474;2023-08-31T03:03:57;14.50;99.90
3100;DHT22;1560;52.746;13.474;2023-08-31T03:09:01;14.50;99.90
3100;DHT22;1560;52.746;13.474;2023-08-31T03:11:31;14.50;99.90
3100;DHT22;1560;52.746;13.474;2023-08-31T03:14:00;14.40;99.90
3100;DHT22;1560;52.746;13.474;2023-08-31T03:16:29;14.40;99.90
3100;DHT22;1560;52.746;13.474;2023-08-31T03:18:57;14.40;99.90
3100;DHT22;1560;52.746;13.474;2023-08-31T03:21:26;14.40;99.90
3100;DHT22;1560;52.746;13.474;2023-08-31T03:26:31;14.40;99.90
3100;DHT22;1560;52.746;13.474;2023-08-31T03:31:38;14.50;99.90
3100;DHT22;1560;52.746;13.474;2023-08-31T03:34:07;14.50;99.90
3100;DHT22;1560;52.746;13.474;2023-08-31T03:36:36;14.50;99.90
3100;DHT22;1560;52.746;13.474;2023-08-31T03:39:05;14.50;99.90
3100;DHT22;1560;52.746;13.474;2023-08-31T03:41:33;14.40;99.90
3100;DHT22;1560;52.746;13.474;2023-08-31T03:44:03;14.40;99.90
3100;DHT22;1560;52.746;13.474;2023-08-31T03:49:09;14.40;99.90
3100;DHT22;1560;52.746;13.474;2023-08-31T03:54:15;14.40;99.90
3100;DHT22;1560;52.746;13.474;2023-08-31T03:56:44;14.30;99.90
3100;DHT22;1560;52.746;13.474;2023-08-31T04:01:50;14.30;99.90
3100;DHT22;1560;52.746;13.474;2023-08-31T04:04:19;14.40;99.90
3100;DHT22;1560;52.746;13.474;2023-08-31T04:06:47;14.40;99.90
3100;DHT22;1560;52.746;13.474;2023-08-31T04:09:17;14.30;99.90
3100;DHT22;1560;52.746;13.474;2023-08-31T04:11:46;14.20;99.90
3100;DHT22;1560;52.746;13.474;2023-08-31T04:14:15;14.20;99.90
3100;DHT22;1560;52.746;13.474;2023-08-31T04:16:45;14.20;99.90
3100;DHT22;1560;52.746;13.474;2023-08-31T04:19:16;14.20;99.90
3100;DHT22;1560;52.746;13.474;2023-08-31T04:21:45;14.20;99.90
3100;DHT22;1560;52.746;13.474;2023-08-31T04:24:13;14.20;99.90
3100;DHT22;1560;52.746;13.474;2023-08-31T04:26:43;14.20;99.90
3100;DHT22;1560;52.746;13.474;2023-08-31T04:29:12;14.10;99.90
3100;DHT22;1560;52.746;13.474;2023-08-31T04:31:41;14.10;99.90
3100;DHT22;1560;52.746;13.474;2023-08-31T04:36:46;14.10;99.90
3100;DHT22;1560;52.746;13.474;2023-08-31T04:41:52;14.10;99.90
3100;DHT22;1560;52.746;13.474;2023-08-31T04:44:21;14.10;99.90
3100;DHT22;1560;52.746;13.474;2023-08-31T04:46:50;14.10;99.90
3100;DHT22;1560;52.746;13.474;2023-08-31T04:49:18;14.10;99.90
3100;DHT22;1560;52.746;13.474;2023-08-31T04:51:47;14.10;99.90
3100;DHT22;1560;52.746;13.474;2023-08-31T04:54:15;14.00;99.90
3100;DHT22;1560;52.746;13.474;2023-08-31T04:56:44;14.00;99.90
3100;DHT22;1560;52.746;13.474;2023-08-31T04:59:13;14.00;99.90
3100;DHT22;1560;52.746;13.474;2023-08-31T05:01:41;14.00;99.90
3100;DHT22;1560;52.746;13.474;2023-08-31T05:04:10;14.00;99.90
3100;DHT22;1560;52.746;13.474;2023-08-31T05:06:38;13.90;99.90
3100;DHT22;1560;52.746;13.474;2023-08-31T05:11:44;14.00;99.90
3100;DHT22;1560;52.746;13.474;2023-08-31T05:14:13;13.90;99.90
3100;DHT22;1560;52.746;13.474;2023-08-31T05:16:42;14.00;99.90
3100;DHT22;1560;52.746;13.474;2023-08-31T05:19:11;14.00;99.90
3100;DHT22;1560;52.746;13.474;2023-08-31T05:24:17;14.10;99.90
3100;DHT22;1560;52.746;13.474;2023-08-31T05:26:45;14.10;99.90
3100;DHT22;1560;52.746;13.474;2023-08-31T05:29:14;14.20;99.90
3100;DHT22;1560;52.746;13.474;2023-08-31T05:31:43;14.20;99.90
3100;DHT22;1560;52.746;13.474;2023-08-31T05:34:13;14.20;99.90
3100;DHT22;1560;52.746;13.474;2023-08-31T05:36:42;14.30;99.90
3100;DHT22;1560;52.746;13.474;2023-08-31T05:39:12;14.30;99.90
3100;DHT22;1560;52.746;13.474;2023-08-31T05:41:42;14.30;99.90
3100;DHT22;1560;52.746;13.474;2023-08-31T05:44:11;14.30;99.90
3100;DHT22;1560;52.746;13.474;2023-08-31T05:49:17;14.30;99.90
3100;DHT22;1560;52.746;13.474;2023-08-31T05:51:45;14.40;99.90
3100;DHT22;1560;52.746;13.474;2023-08-31T05:56:52;14.30;99.90
3100;DHT22;1560;52.746;13.474;2023-08-31T05:59:21;14.30;99.90
3100;DHT22;1560;52.746;13.474;2023-08-31T06:04:27;14.20;99.90
3100;DHT22;1560;52.746;13.474;2023-08-31T06:06:55;14.20;99.90
3100;DHT22;1560;52.746;13.474;2023-08-31T06:09:24;14.20;99.90
3100;DHT22;1560;52.746;13.474;2023-08-31T06:11:53;14.20;99.90
3100;DHT22;1560;52.746;13.474;2023-08-31T06:16:58;14.20;99.90
3100;DHT22;1560;52.746;13.474;2023-08-31T06:19:27;14.30;99.90
3100;DHT22;1560;52.746;13.474;2023-08-31T06:21:55;14.30;99.90
3100;DHT22;1560;52.746;13.474;2023-08-31T06:24:24;14.30;99.90
3100;DHT22;1560;52.746;13.474;2023-08-31T06:26:53;14.30;99.90
3100;DHT22;1560;52.746;13.474;2023-08-31T06:29:22;14.30;99.90
3100;DHT22;1560;52.746;13.474;2023-08-31T06:31:51;14.30;99.90
3100;DHT22;1560;52.746;13.474;2023-08-31T06:34:19;14.40;99.90
3100;DHT22;1560;52.746;13.474;2023-08-31T06:39:24;14.40;99.90
3100;DHT22;1560;52.746;13.474;2023-08-31T06:41:53;14.50;99.90
3100;DHT22;1560;52.746;13.474;2023-08-31T06:46:58;14.50;99.90
3100;DHT22;1560;52.746;13.474;2023-08-31T06:52:06;14.50;99.90
3100;DHT22;1560;52.746;13.474;2023-08-31T06:54:35;14.40;99.90
3100;DHT22;1560;52.746;13.474;2023-08-31T06:57:04;14.50;99.90
3100;DHT22;1560;52.746;13.474;2023-08-31T06:59:33;14.50;99.90
3100;DHT22;1560;52.746;13.474;2023-08-31T07:02:01;14.50;99.90
3100;DHT22;1560;52.746;13.474;2023-08-31T07:04:30;14.50;99.90
3100;DHT22;1560;52.746;13.474;2023-08-31T07:06:58;14.60;99.90
3100;DHT22;1560;52.746;13.474;2023-08-31T07:09:27;14.60;99.90
3100;DHT22;1560;52.746;13.474;2023-08-31T07:11:55;14.60;99.90
3100;DHT22;1560;52.746;13.474;2023-08-31T07:17:03;14.50;99.90
3100;DHT22;1560;52.746;13.474;2023-08-31T07:22:09;14.60;99.90
3100;DHT22;1560;52.746;13.474;2023-08-31T07:24:37;14.60;99.90
3100;DHT22;1560;52.746;13.474;2023-08-31T07:27:06;14.70;99.90
3100;DHT22;1560;52.746;13.474;2023-08-31T07:32:12;14.70;99.90
3100;DHT22;1560;52.746;13.474;2023-08-31T07:34:40;14.70;99.90
3100;DHT22;1560;52.746;13.474;2023-08-31T07:37:09;14.80;99.90
3100;DHT22;1560;52.746;13.474;2023-08-31T07:42:15;15.00;99.90
3100;DHT22;1560;52.746;13.474;2023-08-31T07:44:43;15.30;99.90
3100;DHT22;1560;52.746;13.474;2023-08-31T07:47:12;15.40;99.90
3100;DHT22;1560;52.746;13.474;2023-08-31T07:49:40;15.60;99.90
3100;DHT22;1560;52.746;13.474;2023-08-31T07:52:09;15.60;99.90
3100;DHT22;1560;52.746;13.474;2023-08-31T07:57:15;15.50;99.90
3100;DHT22;1560;52.746;13.474;2023-08-31T07:59:44;15.50;99.90
3100;DHT22;1560;52.746;13.474;2023-08-31T08:02:12;15.50;99.90
3100;DHT22;1560;52.746;13.474;2023-08-31T08:04:42;15.40;99.90
3100;DHT22;1560;52.746;13.474;2023-08-31T08:07:11;15.40;99.90
3100;DHT22;1560;52.746;13.474;2023-08-31T08:09:41;15.30;99.90
3100;DHT22;1560;52.746;13.474;2023-08-31T08:12:10;15.30;99.90
3100;DHT22;1560;52.746;13.474;2023-08-31T08:14:39;15.20;99.90
3100;DHT22;1560;52.746;13.474;2023-08-31T08:17:08;15.20;99.90
3100;DHT22;1560;52.746;13.474;2023-08-31T08:19:36;15.30;99.90
3100;DHT22;1560;52.746;13.474;2023-08-31T08:22:05;15.30;99.90
3100;DHT22;1560;52.746;13.474;2023-08-31T08:24:34;15.40;99.90
3100;DHT22;1560;52.746;13.474;2023-08-31T08:27:02;15.40;99.90
3100;DHT22;1560;52.746;13.474;2023-08-31T08:32:08;15.60;99.90
3100;DHT22;1560;52.746;13.474;2023-08-31T08:34:37;15.80;99.90
3100;DHT22;1560;52.746;13.474;2023-08-31T08:37:05;16.10;99.90
3100;DHT22;1560;52.746;13.474;2023-08-31T08:39:34;16.20;99.90
3100;DHT22;1560;52.746;13.474;2023-08-31T08:44:42;16.10;99.90
3100;DHT22;1560;52.746;13.474;2023-08-31T08:47:12;16.10;99.90
3100;DHT22;1560;52.746;13.474;2023-08-31T08:49:43;16.30;99.90
3100;DHT22;1560;52.746;13.474;2023-08-31T08:54:51;16.90;99.90
3100;DHT22;1560;52.746;13.474;2023-08-31T08:57:20;17.20;99.90
3100;DHT22;1560;52.746;13.474;2023-08-31T08:59:49;17.40;99.90
3100;DHT22;1560;52.746;13.474;2023-08-31T09:02:18;17.70;99.90
3100;DHT22;1560;52.746;13.474;2023-08-31T09:07:24;18.40;99.90
3100;DHT22;1560;52.746;13.474;2023-08-31T09:09:54;18.70;99.90
3100;DHT22;1560;52.746;13.474;2023-08-31T09:12:24;18.90;99.90
3100;DHT22;1560;52.746;13.474;2023-08-31T09:15:00;18.80;1.00
3100;DHT22;1560;52.746;13.474;2023-08-31T09:17:39;19.00;1.00
3100;DHT22;1560;52.746;13.474;2023-08-31T09:20:09;19.10;1.00
3100;DHT22;1560;52.746;13.474;2023-08-31T09:22:41;18.70;99.90
3100;DHT22;1560;52.746;13.474;2023-08-31T09:25:10;18.50;1.00
3100;DHT22;1560;52.746;13.474;2023-08-31T09:52:10;18.30;99.90
3100;DHT22;1560;52.746;13.474;2023-08-31T10:04:24;18.70;1.00
3100;DHT22;1560;52.746;13.474;2023-08-31T10:17:03;20.60;1.00
3100;DHT22;1560;52.746;13.474;2023-08-31T10:19:37;20.90;1.00
3100;DHT22;1560;52.746;13.474;2023-08-31T10:22:08;20.60;1.00
3100;DHT22;1560;52.746;13.474;2023-08-31T10:24:59;20.60;99.90
3100;DHT22;1560;52.746;13.474;2023-08-31T10:27:28;20.30;99.90
3100;DHT22;1560;52.746;13.474;2023-08-31T10:29:57;20.30;99.90
3100;DHT22;1560;52.746;13.474;2023-08-31T10:36:08;20.60;99.90
3100;DHT22;1560;52.746;13.474;2023-08-31T10:42:21;19.90;99.90
3100;DHT22;1560;52.746;13.474;2023-08-31T10:44:51;19.70;1.00
3100;DHT22;1560;52.746;13.474;2023-08-31T10:47:20;20.00;99.90
3100;DHT22;1560;52.746;13.474;2023-08-31T10:49:52;20.40;99.90
3100;DHT22;1560;52.746;13.474;2023-08-31T10:52:22;20.70;1.00
3100;DHT22;1560;52.746;13.474;2023-08-31T10:57:32;20.00;99.90
3100;DHT22;1560;52.746;13.474;2023-08-31T11:00:03;19.60;99.90
3100;DHT22;1560;52.746;13.474;2023-08-31T11:02:34;19.20;99.90
3100;DHT22;1560;52.746;13.474;2023-08-31T11:05:09;19.00;99.90
3100;DHT22;1560;52.746;13.474;2023-08-31T11:07:38;18.80;99.90
3100;DHT22;1560;52.746;13.474;2023-08-31T11:10:10;18.60;99.90
3100;DHT22;1560;52.746;13.474;2023-08-31T11:12:53;18.50;1.00
3100;DHT22;1560;52.746;13.474;2023-08-31T11:15:24;18.50;1.00
3100;DHT22;1560;52.746;13.474;2023-08-31T11:17:54;18.40;99.90
3100;DHT22;1560;52.746;13.474;2023-08-31T11:20:24;18.10;1.00
3100;DHT22;1560;52.746;13.474;2023-08-31T11:22:55;17.90;1.00
3100;DHT22;1560;52.746;13.474;2023-08-31T11:25:24;17.80;1.00
3100;DHT22;1560;52.746;13.474;2023-08-31T11:27:56;17.70;1.00
3100;DHT22;1560;52.746;13.474;2023-08-31T11:30:26;17.60;1.00
3100;DHT22;1560;52.746;13.474;2023-08-31T11:32:55;17.80;1.00
3100;DHT22;1560;52.746;13.474;2023-08-31T11:35:24;18.10;1.00
3100;DHT22;1560;52.746;13.474;2023-08-31T11:37:56;18.20;1.00
3100;DHT22;1560;52.746;13.474;2023-08-31T11:40:27;18.30;1.00
3100;DHT22;1560;52.746;13.474;2023-08-31T11:42:58;18.30;1.00
3100;DHT22;1560;52.746;13.474;2023-08-31T11:45:28;18.30;1.00
3100;DHT22;1560;52.746;13.474;2023-08-31T11:47:58;18.50;1.00
3100;DHT22;1560;52.746;13.474;2023-08-31T11:50:28;19.00;1.00
3100;DHT22;1560;52.746;13.474;2023-08-31T11:55:34;20.20;1.00
3100;DHT22;1560;52.746;13.474;2023-08-31T12:00:43;21.00;1.00
3100;DHT22;1560;52.746;13.474;2023-08-31T12:03:13;21.20;1.00
3100;DHT22;1560;52.746;13.474;2023-08-31T12:05:50;21.30;33.70
3100;DHT22;1560;52.746;13.474;2023-08-31T12:11:01;21.70;1.00
3100;DHT22;1560;52.746;13.474;2023-08-31T12:13:30;21.60;47.90
3100;DHT22;1560;52.746;13.474;2023-08-31T12:16:00;20.90;99.90
3100;DHT22;1560;52.746;13.474;2023-08-31T12:18:31;20.40;1.00
3100;DHT22;1560;52.746;13.474;2023-08-31T12:21:00;19.90;99.90
3100;DHT22;1560;52.746;13.474;2023-08-31T12:23:29;19.60;99.90
3100;DHT22;1560;52.746;13.474;2023-08-31T12:25:58;19.30;99.90
3100;DHT22;1560;52.746;13.474;2023-08-31T12:28:27;19.00;1.00
3100;DHT22;1560;52.746;13.474;2023-08-31T12:30:55;18.80;1.00
3100;DHT22;1560;52.746;13.474;2023-08-31T12:33:26;18.60;1.00
3100;DHT22;1560;52.746;13.474;2023-08-31T12:35:55;18.60;1.00
3100;DHT22;1560;52.746;13.474;2023-08-31T12:38:23;18.60;1.00
3100;DHT22;1560;52.746;13.474;2023-08-31T12:40:52;18.40;1.00
3100;DHT22;1560;52.746;13.474;2023-08-31T12:43:22;18.40;1.00
3100;DHT22;1560;52.746;13.474;2023-08-31T12:45:50;18.50;1.00
3100;DHT22;1560;52.746;13.474;2023-08-31T12:48:19;18.80;1.00
3100;DHT22;1560;52.746;13.474;2023-08-31T12:50:48;19.10;1.00
3100;DHT22;1560;52.746;13.474;2023-08-31T12:53:17;19.40;1.00
3100;DHT22;1560;52.746;13.474;2023-08-31T12:55:45;19.40;1.00
3100;DHT22;1560;52.746;13.474;2023-08-31T13:00:52;19.40;1.00
3100;DHT22;1560;52.746;13.474;2023-08-31T13:03:21;19.20;1.00
3100;DHT22;1560;52.746;13.474;2023-08-31T13:05:49;19.20;1.00
3100;DHT22;1560;52.746;13.474;2023-08-31T13:10:55;19.20;1.00
3100;DHT22;1560;52.746;13.474;2023-08-31T13:13:24;19.10;1.00
3100;DHT22;1560;52.746;13.474;2023-08-31T13:15:53;18.70;1.00
3100;DHT22;1560;52.746;13.474;2023-08-31T13:18:21;18.40;1.00
3100;DHT22;1560;52.746;13.474;2023-08-31T13:20:51;18.30;1.00
3100;DHT22;1560;52.746;13.474;2023-08-31T13:23:19;18.30;1.00
3100;DHT22;1560;52.746;13.474;2023-08-31T13:25:49;18.30;1.00
3100;DHT22;1560;52.746;13.474;2023-08-31T13:30:57;18.00;1.00
3100;DHT22;1560;52.746;13.474;2023-08-31T13:33:27;17.90;1.00
3100;DHT22;1560;52.746;13.474;2023-08-31T13:35:57;17.80;1.00
3100;DHT22;1560;52.746;13.474;2023-08-31T13:38:26;17.50;21.50
3100;DHT22;1560;52.746;13.474;2023-08-31T13:40:58;17.50;39.50
3100;DHT22;1560;52.746;13.474;2023-08-31T13:46:04;17.40;91.80
3100;DHT22;1560;52.746;13.474;2023-08-31T13:48:35;17.50;87.00
3100;DHT22;1560;52.746;13.474;2023-08-31T13:51:04;17.70;79.20
3100;DHT22;1560;52.746;13.474;2023-08-31T13:53:32;17.40;89.90
3100;DHT22;1560;52.746;13.474;2023-08-31T13:56:03;17.30;40.20
3100;DHT22;1560;52.746;13.474;2023-08-31T14:01:08;17.10;1.00
3100;DHT22;1560;52.746;13.474;2023-08-31T14:03:37;17.20;27.50
3100;DHT22;1560;52.746;13.474;2023-08-31T14:06:06;17.40;5.80
3100;DHT22;1560;52.746;13.474;2023-08-31T14:08:36;17.40;38.20
3100;DHT22;1560;52.746;13.474;2023-08-31T14:11:05;17.40;40.60
3100;DHT22;1560;52.746;13.474;2023-08-31T14:16:12;17.60;29.00
3100;DHT22;1560;52.746;13.474;2023-08-31T14:18:41;17.70;23.80
3100;DHT22;1560;52.746;13.474;2023-08-31T14:23:52;17.70;36.70
3100;DHT22;1560;52.746;13.474;2023-08-31T14:26:23;17.70;36.60
3100;DHT22;1560;52.746;13.474;2023-08-31T14:28:52;17.70;35.30
3100;DHT22;1560;52.746;13.474;2023-08-31T14:33:58;17.10;99.90
3100;DHT22;1560;52.746;13.474;2023-08-31T14:36:27;16.70;99.90
3100;DHT22;1560;52.746;13.474;2023-08-31T14:38:57;16.20;99.90
3100;DHT22;1560;52.746;13.474;2023-08-31T14:44:04;14.60;9.80
3100;DHT22;1560;52.746;13.474;2023-08-31T14:46:32;14.40;99.10
3100;DHT22;1560;52.746;13.474;2023-08-31T14:49:01;14.50;99.90
3100;DHT22;1560;52.746;13.474;2023-08-31T14:54:09;14.30;99.90
3100;DHT22;1560;52.746;13.474;2023-08-31T14:56:38;14.10;69.70
3100;DHT22;1560;52.746;13.474;2023-08-31T14:59:06;14.10;99.90
3100;DHT22;1560;52.746;13.474;2023-08-31T15:04:12;14.10;99.90
3100;DHT22;1560;52.746;13.474;2023-08-31T15:06:41;14.10;99.90
3100;DHT22;1560;52.746;13.474;2023-08-31T15:18:59;14.30;99.90
3100;DHT22;1560;52.746;13.474;2023-08-31T15:21:28;14.40;99.90
3100;DHT22;1560;52.746;13.474;2023-08-31T15:23:56;14.50;99.90
3100;DHT22;1560;52.746;13.474;2023-08-31T15:26:25;14.50;99.90
3100;DHT22;1560;52.746;13.474;2023-08-31T15:28:55;14.60;99.90
3100;DHT22;1560;52.746;13.474;2023-08-31T15:31:23;14.70;99.90
3100;DHT22;1560;52.746;13.474;2023-08-31T15:33:52;14.80;99.90
3100;DHT22;1560;52.746;13.474;2023-08-31T15:38:50;14.90;99.90
3100;DHT22;1560;52.746;13.474;2023-08-31T15:43:57;14.60;99.90
3100;DHT22;1560;52.746;13.474;2023-08-31T15:46:26;14.60;99.90
3100;DHT22;1560;52.746;13.474;2023-08-31T15:48:55;14.60;99.90
3100;DHT22;1560;52.746;13.474;2023-08-31T15:51:23;14.50;99.90
3100;DHT22;1560;52.746;13.474;2023-08-31T15:53:53;14.40;99.90
3100;DHT22;1560;52.746;13.474;2023-08-31T15:58:58;14.30;99.90
3100;DHT22;1560;52.746;13.474;2023-08-31T16:01:27;14.30;99.90
3100;DHT22;1560;52.746;13.474;2023-08-31T16:03:57;14.30;99.90
3100;DHT22;1560;52.746;13.474;2023-08-31T16:06:26;14.40;99.90
3100;DHT22;1560;52.746;13.474;2023-08-31T16:08:55;14.50;99.90
3100;DHT22;1560;52.746;13.474;2023-08-31T16:14:02;14.30;99.90
3100;DHT22;1560;52.746;13.474;2023-08-31T16:16:31;14.30;99.90
3100;DHT22;1560;52.746;13.474;2023-08-31T16:18:59;14.30;99.90
3100;DHT22;1560;52.746;13.474;2023-08-31T16:24:06;14.30;99.90
3100;DHT22;1560;52.746;13.474;2023-08-31T16:26:35;14.30;99.90
3100;DHT22;1560;52.746;13.474;2023-08-31T16:29:04;14.10;99.90
3100;DHT22;1560;52.746;13.474;2023-08-31T16:31:33;14.10;99.90
3100;DHT22;1560;52.746;13.474;2023-08-31T16:36:39;14.20;99.90
3100;DHT22;1560;52.746;13.474;2023-08-31T16:39:08;14.20;99.90
3100;DHT22;1560;52.746;13.474;2023-08-31T16:44:12;14.00;99.90
3100;DHT22;1560;52.746;13.474;2023-08-31T16:46:41;14.00;99.90
3100;DHT22;1560;52.746;13.474;2023-08-31T16:49:09;14.00;99.90
3100;DHT22;1560;52.746;13.474;2023-08-31T16:51:38;14.00;99.90
3100;DHT22;1560;52.746;13.474;2023-08-31T16:54:07;14.00;99.90
3100;DHT22;1560;52.746;13.474;2023-08-31T16:59:13;13.90;99.90
3100;DHT22;1560;52.746;13.474;2023-08-31T17:01:42;13.90;99.90
3100;DHT22;1560;52.746;13.474;2023-08-31T17:04:10;13.90;99.90
3100;DHT22;1560;52.746;13.474;2023-08-31T17:09:15;14.00;99.90
3100;DHT22;1560;52.746;13.474;2023-08-31T17:11:44;14.00;99.90
3100;DHT22;1560;52.746;13.474;2023-08-31T17:14:12;13.90;99.90
3100;DHT22;1560;52.746;13.474;2023-08-31T17:16:42;13.80;99.90
3100;DHT22;1560;52.746;13.474;2023-08-31T17:19:11;13.90;99.90
3100;DHT22;1560;52.746;13.474;2023-08-31T17:21:41;13.80;99.90
3100;DHT22;1560;52.746;13.474;2023-08-31T17:24:09;13.80;99.90
3100;DHT22;1560;52.746;13.474;2023-08-31T17:26:38;13.90;99.90
3100;DHT22;1560;52.746;13.474;2023-08-31T17:29:07;13.90;99.90
3100;DHT22;1560;52.746;13.474;2023-08-31T17:31:36;13.90;99.90
3100;DHT22;1560;52.746;13.474;2023-08-31T17:34:04;13.90;99.90
3100;DHT22;1560;52.746;13.474;2023-08-31T17:39:10;13.80;99.90
3100;DHT22;1560;52.746;13.474;2023-08-31T17:41:39;13.60;99.90
3100;DHT22;1560;52.746;13.474;2023-08-31T17:44:08;13.60;99.90
3100;DHT22;1560;52.746;13.474;2023-08-31T17:49:14;13.50;99.90
3100;DHT22;1560;52.746;13.474;2023-08-31T17:51:42;13.50;99.90
3100;DHT22;1560;52.746;13.474;2023-08-31T17:54:13;13.30;99.90
3100;DHT22;1560;52.746;13.474;2023-08-31T17:56:41;13.30;99.90
3100;DHT22;1560;52.746;13.474;2023-08-31T17:59:10;13.30;99.90
3100;DHT22;1560;52.746;13.474;2023-08-31T18:04:18;13.30;99.90
3100;DHT22;1560;52.746;13.474;2023-08-31T18:06:47;13.30;99.90
3100;DHT22;1560;52.746;13.474;2023-08-31T18:11:55;13.30;99.90
3100;DHT22;1560;52.746;13.474;2023-08-31T18:17:03;13.30;99.90
3100;DHT22;1560;52.746;13.474;2023-08-31T18:19:32;13.30;99.90
3100;DHT22;1560;52.746;13.474;2023-08-31T18:22:02;13.20;99.90
3100;DHT22;1560;52.746;13.474;2023-08-31T18:24:31;13.20;99.90
3100;DHT22;1560;52.746;13.474;2023-08-31T18:27:00;13.30;99.90
3100;DHT22;1560;52.746;13.474;2023-08-31T18:29:29;13.30;99.90
3100;DHT22;1560;52.746;13.474;2023-08-31T18:31:58;13.40;99.90
3100;DHT22;1560;52.746;13.474;2023-08-31T18:37:10;13.40;99.90
3100;DHT22;1560;52.746;13.474;2023-08-31T18:42:16;13.30;99.90
3100;DHT22;1560;52.746;13.474;2023-08-31T18:44:45;13.30;99.90
3100;DHT22;1560;52.746;13.474;2023-08-31T18:47:14;13.30;99.90
3100;DHT22;1560;52.746;13.474;2023-08-31T18:49:43;13.30;99.90
3100;DHT22;1560;52.746;13.474;2023-08-31T18:52:12;13.30;99.90
3100;DHT22;1560;52.746;13.474;2023-08-31T18:54:40;13.30;99.90
3100;DHT22;1560;52.746;13.474;2023-08-31T18:57:09;13.20;99.90
3100;DHT22;1560;52.746;13.474;2023-08-31T19:02:15;13.10;99.90
3100;DHT22;1560;52.746;13.474;2023-08-31T19:04:44;13.10;99.90
3100;DHT22;1560;52.746;13.474;2023-08-31T19:07:14;13.10;99.90
3100;DHT22;1560;52.746;13.474;2023-08-31T19:09:45;13.00;99.90
3100;DHT22;1560;52.746;13.474;2023-08-31T19:14:58;12.90;99.90
3100;DHT22;1560;52.746;13.474;2023-08-31T19:20:11;12.80;99.90
3100;DHT22;1560;52.746;13.474;2023-08-31T19:22:43;12.70;99.90
3100;DHT22;1560;52.746;13.474;2023-08-31T19:25:12;12.70;99.90
3100;DHT22;1560;52.746;13.474;2023-08-31T19:27:42;12.70;99.90
3100;DHT22;1560;52.746;13.474;2023-08-31T19:32:47;12.50;99.90
3100;DHT22;1560;52.746;13.474;2023-08-31T19:35:16;12.50;99.90
3100;DHT22;1560;52.746;13.474;2023-08-31T19:37:47;12.50;99.90
3100;DHT22;1560;52.746;13.474;2023-08-31T19:40:18;12.40;99.90
3100;DHT22;1560;52.746;13.474;2023-08-31T19:42:47;12.40;99.90
3100;DHT22;1560;52.746;13.474;2023-08-31T19:45:17;12.50;99.90
3100;DHT22;1560;52.746;13.474;2023-08-31T19:47:47;12.50;99.90
3100;DHT22;1560;52.746;13.474;2023-08-31T19:50:18;12.40;99.90
3100;DHT22;1560;52.746;13.474;2023-08-31T19:52:52;12.50;99.90
3100;DHT22;1560;52.746;13.474;2023-08-31T19:55:21;12.50;99.90
3100;DHT22;1560;52.746;13.474;2023-08-31T19:57:50;12.50;99.90
3100;DHT22;1560;52.746;13.474;2023-08-31T20:00:21;12.40;99.90
3100;DHT22;1560;52.746;13.474;2023-08-31T20:02:50;12.40;99.90
3100;DHT22;1560;52.746;13.474;2023-08-31T20:05:20;12.40;99.90
3100;DHT22;1560;52.746;13.474;2023-08-31T20:07:52;12.40;99.90
3100;DHT22;1560;52.746;13.474;2023-08-31T20:12:59;12.50;99.90